Terminal Aerodrome Forecast
Issued by NWS Jackson, MS

Home | Current Version | Previous Version | Text Only | Print | Product List | Glossary On
Versions: 1 2 3 4 5 6 7 8 9 10 11 12 13 14
000
FTUS44 KJAN 311100
TAFGLH
TAF
KGLH 311120Z 3112/0112 09006KT P6SM SCT100 BKN150
     FM010800 15009KT P6SM BKN015 OVC120=

USA.gov is the U.S. government's official web portal to all federal, state and local government web resources and services.